x

La Perouse Bank (46206) Wave Buoy

11:00 - Fri 29th May 2015 All times are PDT. -7 hours from GMT.

  • Sig Wave height 5.9ft
  • Peak Period 7s
  • Wind
    18mph, 22mph gusts
  • Sea Temp 53°f
  • Ar Temp 53°f
  • Sea Pressure 1014mb
  • La Perouse Bank
  • La Perouse Bank

More Historic Weather Station data

Upgrade to MSW Pro to gain access to the past 30 days of data for over 8000 Wavebouys and Weather Stations around the globe.

Join Pro

Comparision Forecast

View Surf forecast
   
Sex 05/29 11:00 6ft 7s 18 22 mph 1014mb 53f 53f
10:00 6ft 6s 18 22 mph 1014.3mb 53f 53f
9:00 5.5ft 7s 18 22 mph 1014.1mb 53f 53f
8:00 5ft 16s 18 22 mph 1014.4mb 53f 53f
7:00 5ft 16s 16 20 mph 1014.7mb 54f 53f
6:00 5ft 7s 16 18 mph 1015.1mb 54f 54f
5:00 5ft 16s 16 18 mph 1015.5mb 54f 54f
4:00 5ft 16s 11 13 mph 1016mb 55f 54f
3:00 5ft 8s 4 7 mph 1016.2mb 55f 54f
2:00 5.5ft 8s 2 4 mph 1016.3mb 55f 53f
1:00 5.5ft 8s 2 4 mph 1016.4mb 55f 53f
12:00 5.5ft 8s 2 4 mph 1016.6mb 55f 52f
11:00 5.5ft 7s 2 4 mph 1016.4mb 55f 52f
10:00 5.5ft 14s 2 4 mph 1016.5mb 54f 52f
9:00 5.5ft 8s 7 9 mph 1016.3mb 54f 51f
8:00 5.5ft 7s 7 9 mph 1016mb 53f 51f
7:00 6ft 17s 7 11 mph 1015.8mb 53f 52f
6:00 5ft 17s 4 7 mph 1016mb 53f 52f
5:00 5ft 17s  -  mph 1015.9mb 53f 52f
4:00 5.5ft 8s 4
mph
1016.1mb 53f 53f
3:00 5.5ft 17s 4
mph
1016.3mb 54f 53f
2:00 6ft 8s 4
mph
1016.4mb 54f 53f
1:00 6ft 8s 7 9 mph 1016.6mb 54f 53f
12:00 6ft 8s 9 11 mph 1016.7mb 54f 53f
Qui 05/28 11:00 5ft 8s 9 11 mph 1016.9mb 54f 53f
10:00 5ft 12s 9 11 mph 1017mb 54f 54f
9:00 5ft 15s 9
mph
1017.1mb 55f 54f
8:00 5ft 11s 7
mph
1017.4mb 54f 52f
7:00 4.5ft 12s 7 11 mph 1017.9mb 54f 51f
6:00 4.5ft 15s 7 9 mph 1018.2mb 54f 51f
5:00 4.5ft 18s 7 9 mph 1018.8mb 54f 51f
4:00 4.5ft 18s 4
mph
1019.4mb 54f 51f
3:00 5ft 13s 4 7 mph 1019.6mb 54f 51f
2:00 5ft 12s 4 9 mph 1019.7mb 53f 50f
1:00 5ft 18s 4 7 mph 1019.5mb 54f 51f
12:00 4.5ft 12s 7 9 mph 1019.4mb 54f 51f
11:00 5ft 14s 4 7 mph 1019.7mb 55f 51f
10:00 5ft 12s 4 9 mph 1019.6mb 55f 50f
9:00 6ft 16s 4 9 mph 1019.6mb 53f 50f
8:00 5.5ft 18s 4 9 mph 1019.3mb 54f 50f
7:00 5.5ft 12s 7 11 mph 1019mb 54f 49f
6:00 5.5ft 12s 9 13 mph 1018.5mb 54f 49f
5:00 5ft 13s 9 13 mph 1018.4mb 54f 50f
4:00 5ft 12s 9 13 mph 1018.1mb 54f 50f
3:00 5ft 12s 9 13 mph 1018.1mb 54f 50f
2:00 5ft 14s 7 9 mph 1018.3mb 54f 50f
1:00 5ft 12s 4 7 mph 1018.3mb 54f 50f
12:00 6ft 14s 2 4 mph 1018.4mb 54f 51f
Qua 05/27 11:00 5.5ft 14s 4 7 mph 1018.2mb 54f 50f
10:00 5ft 13s 2 4 mph 1017.9mb 55f 51f
9:00 5ft 13s 2 4 mph 1017.8mb 55f 51f
8:00 5.5ft 13s 4 7 mph 1017.7mb 55f 52f
7:00 5ft 14s 4 7 mph 1017.8mb 55f 52f
6:00 5ft 13s 2 4 mph 1018.2mb 54f 53f
5:00 5ft 14s 2 4 mph 1018.5mb 54f 52f
4:00 5ft 12s 2 4 mph 1018.8mb 55f 53f
3:00 5ft 12s  -  4 mph 1018.8mb 55f 53f
2:00 5.5ft 12s 4 7 mph 1019mb 54f 53f
1:00 5.5ft 14s 7 9 mph 1019.1mb 54f 52f
12:00 5ft 14s 7 9 mph 1019mb 54f 52f
11:00 5ft 14s 9 11 mph 1018.8mb 54f 52f
10:00 5.5ft 12s 7 11 mph 1018.6mb 53f 52f
9:00 5.5ft 12s 7 9 mph 1018.7mb 54f 52f
8:00 6ft 12s 7 11 mph 1018.4mb 54f 51f
7:00 6ft 11s 9 11 mph 1018.1mb 54f 51f
6:00 6.5ft 7s 9 11 mph 1018mb 54f 51f
5:00 6ft 7s 4 9 mph 1017.8mb 54f 51f
4:00 6.5ft 7s 2
mph
1017.9mb 54f 52f
3:00 6.5ft 8s 2 4 mph 1018mb 54f 52f
2:00 7ft 7s 4 9 mph 1017.9mb 53f 52f
1:00 6ft 12s 4 9 mph 1017.8mb 53f 52f
12:00 6ft 12s 9 11 mph 1017.7mb 53f 53f
Ter 05/26 11:00 5ft 13s 9 11 mph 1017.7mb 53f 52f
10:00 5.5ft 12s 9 11 mph 1017.8mb 53f 52f
9:00 5ft 14s 11 13 mph 1017.4mb 53f 52f
8:00 4.5ft 10s 11 13 mph 1017.5mb 54f 53f
7:00 4.5ft 15s 11 13 mph 1017.6mb 55f 52f
6:00 4.5ft 12s 9
mph
1018.2mb 54f 52f
5:00 4.5ft 16s 9 11 mph 1018.4mb 54f 52f
4:00 4.5ft 6s 4 9 mph 1018.9mb 54f 53f
3:00 5ft 12s 4 7 mph 1018.8mb 54f 54f
2:00 4.5ft 12s 4 7 mph 1019.3mb 54f 54f
1:00 4.5ft 12s 4
mph
1019.4mb 54f 53f
12:00 4.5ft 6s 4
mph
1019.1mb 54f 53f
11:00 4.5ft 13s 2 4 mph 1018.8mb 54f 53f
10:00 4.5ft 13s  -  2 mph 1018.4mb 54f 53f
9:00 4.5ft 14s 2 4 mph 1018.3mb 54f 53f
8:00 5ft 7s 7 9 mph 1018.2mb 54f 52f